Terminal Aerodrome Forecast
Issued by NWS Twin Cities, MN

Home | Current Version | Previous Version | Text Only | Print | Product List | Glossary Off
Versions: 1 2 3 4 5 6 7 8 9 10 11 12 13 14 15 16 17 18 19 20 21 22 23 24

000
FTUS43 KMPX 021737
TAFMSP
TAF
KMSP 021737Z 0218/0324 29015G24KT P6SM VCSH BKN040 BKN120
     FM022000 32018G27KT P6SM SCT045
     FM030100 31012KT P6SM SKC
     FM030600 30006KT P6SM SKC
     FM031500 31012G19KT P6SM SKC=

USA.gov is the U.S. government's official web portal to all federal, state and local government web resources and services.